sensor_id;sensor_type;location;lat;lon;timestamp;pressure;altitude;pressure_sealevel;temperature;humidity
53262;BME280;39658;51.090;-1.786;2023-04-01T00:00:47;99228.16;;;8.51;100.00
53262;BME280;39658;51.090;-1.786;2023-04-01T00:03:15;99220.28;;;8.51;100.00
53262;BME280;39658;51.090;-1.786;2023-04-01T00:05:42;99230.56;;;8.54;100.00
53262;BME280;39658;51.090;-1.786;2023-04-01T00:08:10;99239.88;;;8.58;100.00
53262;BME280;39658;51.090;-1.786;2023-04-01T00:10:37;99235.56;;;8.57;100.00
53262;BME280;39658;51.090;-1.786;2023-04-01T00:13:04;99236.50;;;8.56;100.00
53262;BME280;39658;51.090;-1.786;2023-04-01T00:15:31;99233.88;;;8.56;100.00
53262;BME280;39658;51.090;-1.786;2023-04-01T00:17:57;99235.31;;;8.60;100.00
53262;BME280;39658;51.090;-1.786;2023-04-01T00:20:25;99244.63;;;8.64;100.00
53262;BME280;39658;51.090;-1.786;2023-04-01T00:22:51;99236.13;;;8.60;100.00
53262;BME280;39658;51.090;-1.786;2023-04-01T00:25:20;99244.25;;;8.57;100.00
53262;BME280;39658;51.090;-1.786;2023-04-01T00:27:46;99255.13;;;8.53;100.00
53262;BME280;39658;51.090;-1.786;2023-04-01T00:30:14;99242.63;;;8.56;100.00
53262;BME280;39658;51.090;-1.786;2023-04-01T00:32:41;99231.72;;;8.61;100.00
53262;BME280;39658;51.090;-1.786;2023-04-01T00:35:08;99246.75;;;8.59;100.00
53262;BME280;39658;51.090;-1.786;2023-04-01T00:37:36;99250.25;;;8.59;100.00
53262;BME280;39658;51.090;-1.786;2023-04-01T00:40:24;99249.88;;;8.64;100.00
53262;BME280;39658;51.090;-1.786;2023-04-01T00:42:51;99254.41;;;8.62;100.00
53262;BME280;39658;51.090;-1.786;2023-04-01T00:45:31;99256.91;;;8.63;100.00
53262;BME280;39658;51.090;-1.786;2023-04-01T00:48:01;99256.06;;;8.63;100.00
53262;BME280;39658;51.090;-1.786;2023-04-01T00:50:30;99264.22;;;8.60;100.00
53262;BME280;39658;51.090;-1.786;2023-04-01T00:53:00;99254.66;;;8.59;100.00
53262;BME280;39658;51.090;-1.786;2023-04-01T00:55:31;99259.19;;;8.57;100.00
53262;BME280;39658;51.090;-1.786;2023-04-01T00:58:02;99253.38;;;8.53;100.00
53262;BME280;39658;51.090;-1.786;2023-04-01T01:00:30;99256.13;;;8.52;100.00
53262;BME280;39658;51.090;-1.786;2023-04-01T01:02:57;99260.41;;;8.53;100.00
53262;BME280;39658;51.090;-1.786;2023-04-01T01:05:31;99253.00;;;8.47;100.00
53262;BME280;39658;51.090;-1.786;2023-04-01T01:08:07;99262.09;;;8.42;100.00
53262;BME280;39658;51.090;-1.786;2023-04-01T01:10:39;99264.09;;;8.39;100.00
53262;BME280;39658;51.090;-1.786;2023-04-01T01:13:10;99267.81;;;8.36;100.00
53262;BME280;39658;51.090;-1.786;2023-04-01T01:15:43;99279.53;;;8.32;100.00
53262;BME280;39658;51.090;-1.786;2023-04-01T01:18:18;99268.19;;;8.32;100.00
53262;BME280;39658;51.090;-1.786;2023-04-01T01:21:15;99274.50;;;8.29;100.00
53262;BME280;39658;51.090;-1.786;2023-04-01T01:24:07;99278.25;;;8.26;100.00
53262;BME280;39658;51.090;-1.786;2023-04-01T01:26:56;99279.06;;;8.27;100.00
53262;BME280;39658;51.090;-1.786;2023-04-01T01:33:10;99285.25;;;8.26;100.00
53262;BME280;39658;51.090;-1.786;2023-04-01T01:35:44;99282.63;;;8.26;100.00
53262;BME280;39658;51.090;-1.786;2023-04-01T01:38:15;99286.59;;;8.20;100.00
53262;BME280;39658;51.090;-1.786;2023-04-01T01:40:49;99296.00;;;8.23;100.00
53262;BME280;39658;51.090;-1.786;2023-04-01T01:43:21;99302.25;;;8.22;100.00
53262;BME280;39658;51.090;-1.786;2023-04-01T01:45:51;99301.50;;;8.20;100.00
53262;BME280;39658;51.090;-1.786;2023-04-01T01:48:19;99310.09;;;8.22;100.00
53262;BME280;39658;51.090;-1.786;2023-04-01T01:50:48;99303.41;;;8.18;100.00
53262;BME280;39658;51.090;-1.786;2023-04-01T01:53:15;99311.28;;;8.18;100.00
53262;BME280;39658;51.090;-1.786;2023-04-01T01:55:43;99319.41;;;8.15;100.00
53262;BME280;39658;51.090;-1.786;2023-04-01T01:58:13;99314.28;;;8.13;100.00
53262;BME280;39658;51.090;-1.786;2023-04-01T02:00:46;99325.59;;;8.14;100.00
53262;BME280;39658;51.090;-1.786;2023-04-01T02:03:15;99327.16;;;8.16;100.00
53262;BME280;39658;51.090;-1.786;2023-04-01T02:05:44;99330.16;;;8.12;100.00
53262;BME280;39658;51.090;-1.786;2023-04-01T02:08:14;99339.72;;;8.13;100.00
53262;BME280;39658;51.090;-1.786;2023-04-01T02:10:47;99332.53;;;8.15;100.00
53262;BME280;39658;51.090;-1.786;2023-04-01T02:13:21;99335.41;;;8.12;100.00
53262;BME280;39658;51.090;-1.786;2023-04-01T02:15:52;99338.25;;;8.08;100.00
53262;BME280;39658;51.090;-1.786;2023-04-01T02:18:22;99340.78;;;8.10;100.00
53262;BME280;39658;51.090;-1.786;2023-04-01T02:20:50;99342.69;;;8.08;100.00
53262;BME280;39658;51.090;-1.786;2023-04-01T02:23:19;99338.25;;;8.08;100.00
53262;BME280;39658;51.090;-1.786;2023-04-01T02:25:46;99341.00;;;8.07;100.00
53262;BME280;39658;51.090;-1.786;2023-04-01T02:28:14;99346.25;;;8.07;100.00
53262;BME280;39658;51.090;-1.786;2023-04-01T02:30:46;99349.13;;;8.04;100.00
53262;BME280;39658;51.090;-1.786;2023-04-01T02:33:14;99356.06;;;8.05;100.00
53262;BME280;39658;51.090;-1.786;2023-04-01T02:35:41;99351.75;;;8.04;100.00
53262;BME280;39658;51.090;-1.786;2023-04-01T02:38:08;99340.53;;;8.02;100.00
53262;BME280;39658;51.090;-1.786;2023-04-01T02:40:48;99340.66;;;8.00;100.00
53262;BME280;39658;51.090;-1.786;2023-04-01T02:43:15;99349.38;;;8.01;100.00
53262;BME280;39658;51.090;-1.786;2023-04-01T02:45:42;99347.69;;;8.00;100.00
53262;BME280;39658;51.090;-1.786;2023-04-01T02:48:09;99352.09;;;7.99;100.00
53262;BME280;39658;51.090;-1.786;2023-04-01T02:50:38;99346.97;;;7.98;100.00
53262;BME280;39658;51.090;-1.786;2023-04-01T02:53:05;99351.50;;;7.96;100.00
53262;BME280;39658;51.090;-1.786;2023-04-01T02:55:32;99349.94;;;7.93;100.00
53262;BME280;39658;51.090;-1.786;2023-04-01T02:58:01;99349.00;;;7.94;100.00
53262;BME280;39658;51.090;-1.786;2023-04-01T03:00:27;99355.44;;;7.90;100.00
53262;BME280;39658;51.090;-1.786;2023-04-01T03:02:54;99345.88;;;7.89;100.00
53262;BME280;39658;51.090;-1.786;2023-04-01T03:05:21;99358.88;;;7.90;100.00
53262;BME280;39658;51.090;-1.786;2023-04-01T03:07:48;99347.56;;;7.90;100.00
53262;BME280;39658;51.090;-1.786;2023-04-01T03:10:15;99358.28;;;7.87;100.00
53262;BME280;39658;51.090;-1.786;2023-04-01T03:12:42;99363.53;;;7.87;100.00
53262;BME280;39658;51.090;-1.786;2023-04-01T03:15:11;99357.22;;;7.89;100.00
53262;BME280;39658;51.090;-1.786;2023-04-01T03:17:40;99366.06;;;7.88;100.00
53262;BME280;39658;51.090;-1.786;2023-04-01T03:20:08;99362.94;;;7.83;100.00
53262;BME280;39658;51.090;-1.786;2023-04-01T03:22:36;99360.44;;;7.82;100.00
53262;BME280;39658;51.090;-1.786;2023-04-01T03:25:04;99370.19;;;7.80;100.00
53262;BME280;39658;51.090;-1.786;2023-04-01T03:27:31;99371.66;;;7.84;100.00
53262;BME280;39658;51.090;-1.786;2023-04-01T03:29:58;99373.56;;;7.82;100.00
53262;BME280;39658;51.090;-1.786;2023-04-01T03:32:26;99369.03;;;7.84;100.00
53262;BME280;39658;51.090;-1.786;2023-04-01T03:34:53;99377.13;;;7.81;100.00
53262;BME280;39658;51.090;-1.786;2023-04-01T03:37:20;99381.56;;;7.80;100.00
53262;BME280;39658;51.090;-1.786;2023-04-01T03:39:46;99384.88;;;7.82;100.00
53262;BME280;39658;51.090;-1.786;2023-04-01T03:42:13;99386.91;;;7.79;100.00
53262;BME280;39658;51.090;-1.786;2023-04-01T03:44:40;99386.81;;;7.80;100.00
53262;BME280;39658;51.090;-1.786;2023-04-01T03:47:07;99392.28;;;7.77;100.00
53262;BME280;39658;51.090;-1.786;2023-04-01T03:49:35;99367.09;;;7.63;100.00
53262;BME280;39658;51.090;-1.786;2023-04-01T03:52:02;99387.16;;;7.76;100.00
53262;BME280;39658;51.090;-1.786;2023-04-01T03:54:29;99389.88;;;7.74;100.00
53262;BME280;39658;51.090;-1.786;2023-04-01T03:56:56;99389.66;;;7.77;100.00
53262;BME280;39658;51.090;-1.786;2023-04-01T03:59:23;99388.09;;;7.75;100.00
53262;BME280;39658;51.090;-1.786;2023-04-01T04:01:50;99389.88;;;7.74;100.00
53262;BME280;39658;51.090;-1.786;2023-04-01T04:04:16;99392.63;;;7.72;100.00
53262;BME280;39658;51.090;-1.786;2023-04-01T04:06:44;99394.50;;;7.70;100.00
53262;BME280;39658;51.090;-1.786;2023-04-01T04:09:11;99399.88;;;7.69;100.00
53262;BME280;39658;51.090;-1.786;2023-04-01T04:11:38;99406.81;;;7.70;100.00
53262;BME280;39658;51.090;-1.786;2023-04-01T04:14:05;99392.84;;;7.69;100.00
53262;BME280;39658;51.090;-1.786;2023-04-01T04:16:31;99404.28;;;7.68;100.00
53262;BME280;39658;51.090;-1.786;2023-04-01T04:18:58;99397.25;;;7.69;100.00
53262;BME280;39658;51.090;-1.786;2023-04-01T04:21:25;99404.28;;;7.68;100.00
53262;BME280;39658;51.090;-1.786;2023-04-01T04:23:53;99405.22;;;7.67;100.00
53262;BME280;39658;51.090;-1.786;2023-04-01T04:26:20;99415.72;;;7.67;100.00
53262;BME280;39658;51.090;-1.786;2023-04-01T04:28:46;99409.75;;;7.65;100.00
53262;BME280;39658;51.090;-1.786;2023-04-01T04:31:18;99408.81;;;7.66;100.00
53262;BME280;39658;51.090;-1.786;2023-04-01T04:33:45;99407.03;;;7.67;100.00
53262;BME280;39658;51.090;-1.786;2023-04-01T04:36:12;99402.72;;;7.66;100.00
53262;BME280;39658;51.090;-1.786;2023-04-01T04:38:39;99421.81;;;7.68;100.00
53262;BME280;39658;51.090;-1.786;2023-04-01T04:41:10;99414.78;;;7.68;100.00
53262;BME280;39658;51.090;-1.786;2023-04-01T04:43:37;99413.22;;;7.66;100.00
53262;BME280;39658;51.090;-1.786;2023-04-01T04:46:05;99419.22;;;7.68;100.00
53262;BME280;39658;51.090;-1.786;2023-04-01T04:48:31;99423.38;;;7.70;100.00
53262;BME280;39658;51.090;-1.786;2023-04-01T04:50:58;99414.78;;;7.68;100.00
53262;BME280;39658;51.090;-1.786;2023-04-01T04:53:25;99424.69;;;7.65;100.00
53262;BME280;39658;51.090;-1.786;2023-04-01T04:55:52;99422.53;;;7.70;100.00
53262;BME280;39658;51.090;-1.786;2023-04-01T04:58:20;99422.78;;;7.67;100.00
53262;BME280;39658;51.090;-1.786;2023-04-01T05:00:47;99419.31;;;7.66;100.00
53262;BME280;39658;51.090;-1.786;2023-04-01T05:03:14;99433.38;;;7.65;100.00
53262;BME280;39658;51.090;-1.786;2023-04-01T05:05:48;99428.13;;;7.65;100.00
53262;BME280;39658;51.090;-1.786;2023-04-01T05:08:15;99434.09;;;7.67;100.00
53262;BME280;39658;51.090;-1.786;2023-04-01T05:10:42;99436.81;;;7.66;100.00
53262;BME280;39658;51.090;-1.786;2023-04-01T05:13:08;99434.31;;;7.64;100.00
53262;BME280;39658;51.090;-1.786;2023-04-01T05:15:37;99435.16;;;7.65;100.00
53262;BME280;39658;51.090;-1.786;2023-04-01T05:18:04;99437.69;;;7.66;100.00
53262;BME280;39658;51.090;-1.786;2023-04-01T05:20:30;99448.28;;;7.65;100.00
53262;BME280;39658;51.090;-1.786;2023-04-01T05:22:57;99445.03;;;7.61;100.00
53262;BME280;39658;51.090;-1.786;2023-04-01T05:25:25;99444.09;;;7.62;100.00
53262;BME280;39658;51.090;-1.786;2023-04-01T05:27:52;99454.38;;;7.65;100.00
53262;BME280;39658;51.090;-1.786;2023-04-01T05:30:19;99460.56;;;7.64;100.00
53262;BME280;39658;51.090;-1.786;2023-04-01T05:32:47;99456.28;;;7.63;100.00
53262;BME280;39658;51.090;-1.786;2023-04-01T05:35:14;99459.59;;;7.65;100.00
53262;BME280;39658;51.090;-1.786;2023-04-01T05:37:41;99459.59;;;7.65;100.00
53262;BME280;39658;51.090;-1.786;2023-04-01T05:40:08;99465.09;;;7.62;100.00
53262;BME280;39658;51.090;-1.786;2023-04-01T05:42:35;99459.00;;;7.62;100.00
53262;BME280;39658;51.090;-1.786;2023-04-01T05:45:02;99461.75;;;7.60;100.00
53262;BME280;39658;51.090;-1.786;2023-04-01T05:47:29;99467.94;;;7.59;100.00
53262;BME280;39658;51.090;-1.786;2023-04-01T05:49:57;99469.72;;;7.59;100.00
53262;BME280;39658;51.090;-1.786;2023-04-01T05:52:24;99467.00;;;7.60;100.00
53262;BME280;39658;51.090;-1.786;2023-04-01T05:54:51;99476.50;;;7.61;100.00
53262;BME280;39658;51.090;-1.786;2023-04-01T05:57:18;99476.75;;;7.58;100.00
53262;BME280;39658;51.090;-1.786;2023-04-01T05:59:44;99479.13;;;7.61;100.00
53262;BME280;39658;51.090;-1.786;2023-04-01T06:02:11;99479.38;;;7.58;100.00
53262;BME280;39658;51.090;-1.786;2023-04-01T06:04:39;99480.94;;;7.61;100.00
53262;BME280;39658;51.090;-1.786;2023-04-01T06:07:13;99480.22;;;7.59;100.00
53262;BME280;39658;51.090;-1.786;2023-04-01T06:09:39;99493.22;;;7.60;100.00
53262;BME280;39658;51.090;-1.786;2023-04-01T06:12:33;99494.88;;;7.61;100.00
53262;BME280;39658;51.090;-1.786;2023-04-01T06:15:16;99490.38;;;7.63;100.00
53262;BME280;39658;51.090;-1.786;2023-04-01T06:17:56;99487.63;;;7.65;100.00
53262;BME280;39658;51.090;-1.786;2023-04-01T06:20:34;99499.69;;;7.67;100.00
53262;BME280;39658;51.090;-1.786;2023-04-01T06:26:14;99498.50;;;7.71;100.00
53262;BME280;39658;51.090;-1.786;2023-04-01T06:29:17;99503.03;;;7.69;100.00
53262;BME280;39658;51.090;-1.786;2023-04-01T06:32:05;99508.06;;;7.72;100.00
53262;BME280;39658;51.090;-1.786;2023-04-01T06:37:56;99512.13;;;7.77;100.00
53262;BME280;39658;51.090;-1.786;2023-04-01T06:40:51;99526.91;;;7.78;100.00
53262;BME280;39658;51.090;-1.786;2023-04-01T06:43:25;99518.22;;;7.77;100.00
53262;BME280;39658;51.090;-1.786;2023-04-01T06:46:02;99519.75;;;7.80;100.00
53262;BME280;39658;51.090;-1.786;2023-04-01T06:48:51;99520.41;;;7.83;100.00
53262;BME280;39658;51.090;-1.786;2023-04-01T06:51:27;99528.16;;;7.85;100.00
53262;BME280;39658;51.090;-1.786;2023-04-01T06:54:03;99527.28;;;7.84;100.00
53262;BME280;39658;51.090;-1.786;2023-04-01T06:56:33;99529.91;;;7.84;100.00
53262;BME280;39658;51.090;-1.786;2023-04-01T06:59:02;99528.03;;;7.86;100.00
53262;BME280;39658;51.090;-1.786;2023-04-01T07:01:35;99540.81;;;7.91;100.00
53262;BME280;39658;51.090;-1.786;2023-04-01T07:04:06;99547.38;;;7.97;100.00
53262;BME280;39658;51.090;-1.786;2023-04-01T07:06:39;99552.03;;;7.93;100.00
53262;BME280;39658;51.090;-1.786;2023-04-01T07:09:12;99549.41;;;7.93;100.00
53262;BME280;39658;51.090;-1.786;2023-04-01T07:11:43;99556.56;;;7.91;100.00
53262;BME280;39658;51.090;-1.786;2023-04-01T07:14:15;99560.03;;;7.91;100.00
53262;BME280;39658;51.090;-1.786;2023-04-01T07:16:47;99561.38;;;7.97;100.00
53262;BME280;39658;51.090;-1.786;2023-04-01T07:19:20;99569.25;;;7.97;100.00
53262;BME280;39658;51.090;-1.786;2023-04-01T07:21:51;99565.03;;;7.95;100.00
53262;BME280;39658;51.090;-1.786;2023-04-01T07:24:23;99568.38;;;7.97;100.00
53262;BME280;39658;51.090;-1.786;2023-04-01T07:26:55;99563.13;;;7.97;100.00
53262;BME280;39658;51.090;-1.786;2023-04-01T07:29:22;99570.91;;;7.98;100.00
53262;BME280;39658;51.090;-1.786;2023-04-01T07:34:49;99572.97;;;8.06;100.00
53262;BME280;39658;51.090;-1.786;2023-04-01T07:37:22;99578.84;;;8.09;100.00
53262;BME280;39658;51.090;-1.786;2023-04-01T07:39:57;99579.44;;;8.13;100.00
53262;BME280;39658;51.090;-1.786;2023-04-01T07:42:37;99588.88;;;8.16;100.00
53262;BME280;39658;51.090;-1.786;2023-04-01T07:45:15;99580.56;;;8.22;100.00
53262;BME280;39658;51.090;-1.786;2023-04-01T07:47:54;99603.69;;;8.28;100.00
53262;BME280;39658;51.090;-1.786;2023-04-01T07:50:28;99587.50;;;8.34;100.00
53262;BME280;39658;51.090;-1.786;2023-04-01T07:53:06;99595.03;;;8.39;100.00
53262;BME280;39658;51.090;-1.786;2023-04-01T07:55:39;99600.16;;;8.40;100.00
53262;BME280;39658;51.090;-1.786;2023-04-01T07:58:16;99600.50;;;8.36;100.00
53262;BME280;39658;51.090;-1.786;2023-04-01T08:00:51;99602.88;;;8.27;100.00
53262;BME280;39658;51.090;-1.786;2023-04-01T08:03:30;99602.50;;;8.21;100.00
53262;BME280;39658;51.090;-1.786;2023-04-01T08:06:00;99605.13;;;8.21;100.00
53262;BME280;39658;51.090;-1.786;2023-04-01T08:08:42;99607.75;;;8.21;100.00
53262;BME280;39658;51.090;-1.786;2023-04-01T08:11:20;99607.97;;;8.18;100.00
53262;BME280;39658;51.090;-1.786;2023-04-01T08:13:55;99615.84;;;8.18;100.00
53262;BME280;39658;51.090;-1.786;2023-04-01T08:16:31;99612.75;;;8.13;100.00
53262;BME280;39658;51.090;-1.786;2023-04-01T08:19:06;99611.22;;;8.21;100.00
53262;BME280;39658;51.090;-1.786;2023-04-01T08:21:42;99614.56;;;8.23;100.00
53262;BME280;39658;51.090;-1.786;2023-04-01T08:24:19;99623.50;;;8.21;100.00
53262;BME280;39658;51.090;-1.786;2023-04-01T08:26:52;99629.94;;;8.17;100.00
53262;BME280;39658;51.090;-1.786;2023-04-01T08:29:24;99629.69;;;8.20;100.00
53262;BME280;39658;51.090;-1.786;2023-04-01T08:31:55;99628.66;;;8.22;100.00
53262;BME280;39658;51.090;-1.786;2023-04-01T08:34:27;99631.38;;;8.21;100.00
53262;BME280;39658;51.090;-1.786;2023-04-01T08:37:00;99643.06;;;8.17;100.00
53262;BME280;39658;51.090;-1.786;2023-04-01T08:39:31;99638.88;;;8.14;100.00
53262;BME280;39658;51.090;-1.786;2023-04-01T08:42:18;99644.81;;;8.05;100.00
53262;BME280;39658;51.090;-1.786;2023-04-01T08:50:51;99643.13;;;8.04;100.00
53262;BME280;39658;51.090;-1.786;2023-04-01T08:53:32;99653.47;;;7.94;100.00
53262;BME280;39658;51.090;-1.786;2023-04-01T08:56:06;99663.50;;;8.00;100.00
53262;BME280;39658;51.090;-1.786;2023-04-01T08:59:04;99660.03;;;8.00;100.00
53262;BME280;39658;51.090;-1.786;2023-04-01T09:01:49;99664.13;;;8.04;100.00
53262;BME280;39658;51.090;-1.786;2023-04-01T09:04:25;99660.56;;;8.05;100.00
53262;BME280;39658;51.090;-1.786;2023-04-01T09:07:07;99670.31;;;8.03;100.00
53262;BME280;39658;51.090;-1.786;2023-04-01T09:10:04;99665.16;;;8.01;100.00
53262;BME280;39658;51.090;-1.786;2023-04-01T09:12:55;99676.53;;;8.02;100.00
53262;BME280;39658;51.090;-1.786;2023-04-01T09:15:54;99674.34;;;7.96;100.00
53262;BME280;39658;51.090;-1.786;2023-04-01T09:21:51;99685.06;;;8.17;100.00
53262;BME280;39658;51.090;-1.786;2023-04-01T09:24:56;99683.56;;;8.25;100.00
53262;BME280;39658;51.090;-1.786;2023-04-01T09:27:29;99685.75;;;8.32;100.00
53262;BME280;39658;51.090;-1.786;2023-04-01T09:30:29;99693.28;;;8.36;100.00
53262;BME280;39658;51.090;-1.786;2023-04-01T09:33:36;99684.03;;;8.43;100.00
53262;BME280;39658;51.090;-1.786;2023-04-01T09:36:15;99686.09;;;8.51;100.00
53262;BME280;39658;51.090;-1.786;2023-04-01T09:38:56;99694.59;;;8.55;100.00
53262;BME280;39658;51.090;-1.786;2023-04-01T09:41:29;99690.66;;;8.60;100.00
53262;BME280;39658;51.090;-1.786;2023-04-01T09:44:03;99698.59;;;8.72;100.00
53262;BME280;39658;51.090;-1.786;2023-04-01T09:46:56;99680.91;;;8.74;100.00
53262;BME280;39658;51.090;-1.786;2023-04-01T09:49:55;99694.66;;;8.77;100.00
53262;BME280;39658;51.090;-1.786;2023-04-01T09:52:32;99699.50;;;8.95;100.00
53262;BME280;39658;51.090;-1.786;2023-04-01T09:55:19;99696.88;;;9.06;100.00
53262;BME280;39658;51.090;-1.786;2023-04-01T09:58:16;99698.06;;;9.02;100.00
53262;BME280;39658;51.090;-1.786;2023-04-01T10:01:12;99704.88;;;8.93;100.00
53262;BME280;39658;51.090;-1.786;2023-04-01T10:04:24;99698.91;;;9.03;100.00
53262;BME280;39658;51.090;-1.786;2023-04-01T10:07:13;99702.50;;;9.02;100.00
53262;BME280;39658;51.090;-1.786;2023-04-01T10:19:31;99726.47;;;9.78;100.00
53262;BME280;39658;51.090;-1.786;2023-04-01T10:22:28;99725.13;;;9.95;100.00
53262;BME280;39658;51.090;-1.786;2023-04-01T10:25:18;99724.25;;;10.17;100.00
53262;BME280;39658;51.090;-1.786;2023-04-01T10:28:07;99725.44;;;10.13;100.00
53262;BME280;39658;51.090;-1.786;2023-04-01T10:31:28;99735.75;;;10.04;100.00
53262;BME280;39658;51.090;-1.786;2023-04-01T10:34:46;99741.41;;;10.00;100.00
53262;BME280;39658;51.090;-1.786;2023-04-01T10:37:34;99744.06;;;9.88;100.00
53262;BME280;39658;51.090;-1.786;2023-04-01T10:40:31;99747.19;;;9.71;100.00
53262;BME280;39658;51.090;-1.786;2023-04-01T10:43:43;99749.06;;;9.69;100.00
53262;BME280;39658;51.090;-1.786;2023-04-01T10:49:52;99762.84;;;9.73;100.00
53262;BME280;39658;51.090;-1.786;2023-04-01T10:55:42;99772.88;;;10.01;100.00
53262;BME280;39658;51.090;-1.786;2023-04-01T11:01:23;99774.19;;;9.84;100.00
53262;BME280;39658;51.090;-1.786;2023-04-01T11:13:23;99787.34;;;10.41;100.00
53262;BME280;39658;51.090;-1.786;2023-04-01T11:16:28;99780.81;;;10.68;100.00
53262;BME280;39658;51.090;-1.786;2023-04-01T11:22:19;99784.13;;;11.02;100.00
53262;BME280;39658;51.090;-1.786;2023-04-01T11:28:02;99857.66;;;11.28;100.00
53262;BME280;39658;51.090;-1.786;2023-04-01T11:30:52;99854.16;;;11.27;100.00
53262;BME280;39658;51.090;-1.786;2023-04-01T11:33:31;99863.44;;;11.43;100.00
53262;BME280;39658;51.090;-1.786;2023-04-01T11:36:11;99854.44;;;11.88;100.00
53262;BME280;39658;51.090;-1.786;2023-04-01T11:38:57;99864.16;;;12.49;100.00
53262;BME280;39658;51.090;-1.786;2023-04-01T11:41:34;99864.13;;;13.19;100.00
53262;BME280;39658;51.090;-1.786;2023-04-01T11:44:16;99874.06;;;12.56;100.00
53262;BME280;39658;51.090;-1.786;2023-04-01T11:46:54;99872.09;;;11.87;100.00
53262;BME280;39658;51.090;-1.786;2023-04-01T11:49:36;99884.56;;;11.43;100.00
53262;BME280;39658;51.090;-1.786;2023-04-01T11:55:04;99896.44;;;11.16;100.00
53262;BME280;39658;51.090;-1.786;2023-04-01T11:57:46;99900.22;;;11.35;100.00
53262;BME280;39658;51.090;-1.786;2023-04-01T12:00:43;99899.06;;;12.43;100.00
53262;BME280;39658;51.090;-1.786;2023-04-01T12:03:31;99901.38;;;12.67;100.00
53262;BME280;39658;51.090;-1.786;2023-04-01T12:06:08;99906.41;;;12.89;100.00
53262;BME280;39658;51.090;-1.786;2023-04-01T12:08:45;99912.09;;;12.75;100.00
53262;BME280;39658;51.090;-1.786;2023-04-01T12:11:22;99914.75;;;12.34;100.00
53262;BME280;39658;51.090;-1.786;2023-04-01T12:13:59;99919.53;;;12.19;100.00
53262;BME280;39658;51.090;-1.786;2023-04-01T12:16:43;99925.34;;;12.13;100.00
53262;BME280;39658;51.090;-1.786;2023-04-01T12:19:19;99925.69;;;12.51;100.00
53262;BME280;39658;51.090;-1.786;2023-04-01T12:22:07;99933.00;;;12.88;100.00
53262;BME280;39658;51.090;-1.786;2023-04-01T12:24:49;99936.78;;;12.75;100.00
53262;BME280;39658;51.090;-1.786;2023-04-01T12:27:41;99943.97;;;12.64;100.00
53262;BME280;39658;51.090;-1.786;2023-04-01T12:30:32;99941.00;;;12.26;100.00
53262;BME280;39658;51.090;-1.786;2023-04-01T12:33:15;99952.25;;;11.97;100.00
53262;BME280;39658;51.090;-1.786;2023-04-01T12:35:55;99960.19;;;11.86;100.00
53262;BME280;39658;51.090;-1.786;2023-04-01T12:38:34;99959.13;;;12.10;100.00
53262;BME280;39658;51.090;-1.786;2023-04-01T12:41:08;99967.63;;;12.65;100.00
53262;BME280;39658;51.090;-1.786;2023-04-01T12:47:24;99969.44;;;13.05;100.00
53262;BME280;39658;51.090;-1.786;2023-04-01T12:50:19;99982.44;;;12.78;100.00
53262;BME280;39658;51.090;-1.786;2023-04-01T12:53:10;99982.47;;;12.97;100.00
53262;BME280;39658;51.090;-1.786;2023-04-01T12:55:42;99985.41;;;13.35;100.00
53262;BME280;39658;51.090;-1.786;2023-04-01T12:58:43;99987.97;;;14.32;100.00
53262;BME280;39658;51.090;-1.786;2023-04-01T13:01:48;99997.88;;;13.23;100.00
53262;BME280;39658;51.090;-1.786;2023-04-01T13:04:39;100006.06;;;12.38;100.00
53262;BME280;39658;51.090;-1.786;2023-04-01T13:07:29;100004.63;;;12.34;100.00
53262;BME280;39658;51.090;-1.786;2023-04-01T13:10:03;100007.06;;;12.78;100.00
53262;BME280;39658;51.090;-1.786;2023-04-01T13:15:33;100017.34;;;16.06;100.00
53262;BME280;39658;51.090;-1.786;2023-04-01T13:18:13;100024.09;;;15.64;100.00
53262;BME280;39658;51.090;-1.786;2023-04-01T13:20:48;100029.19;;;15.57;100.00
53262;BME280;39658;51.090;-1.786;2023-04-01T13:23:34;100034.81;;;14.61;100.00
53262;BME280;39658;51.090;-1.786;2023-04-01T13:26:10;100038.53;;;13.92;100.00
53262;BME280;39658;51.090;-1.786;2023-04-01T13:28:46;100031.25;;;14.90;100.00
53262;BME280;39658;51.090;-1.786;2023-04-01T13:31:28;100040.41;;;14.96;100.00
53262;BME280;39658;51.090;-1.786;2023-04-01T13:34:04;100046.75;;;13.89;100.00
53262;BME280;39658;51.090;-1.786;2023-04-01T13:36:36;100054.16;;;13.25;100.00
53262;BME280;39658;51.090;-1.786;2023-04-01T13:39:20;100064.47;;;12.87;100.00
53262;BME280;39658;51.090;-1.786;2023-04-01T13:41:59;100075.16;;;12.34;100.00
53262;BME280;39658;51.090;-1.786;2023-04-01T13:44:33;100075.97;;;11.81;100.00
53262;BME280;39658;51.090;-1.786;2023-04-01T13:47:16;100083.47;;;11.42;100.00
53262;BME280;39658;51.090;-1.786;2023-04-01T13:53:12;100088.94;;;11.84;100.00
53262;BME280;39658;51.090;-1.786;2023-04-01T13:55:49;100096.28;;;11.69;100.00
53262;BME280;39658;51.090;-1.786;2023-04-01T13:58:38;100101.63;;;12.01;100.00
53262;BME280;39658;51.090;-1.786;2023-04-01T14:01:15;100103.41;;;12.54;100.00
53262;BME280;39658;51.090;-1.786;2023-04-01T14:04:03;100103.78;;;12.50;100.00
53262;BME280;39658;51.090;-1.786;2023-04-01T14:06:51;100117.97;;;11.95;100.00
53262;BME280;39658;51.090;-1.786;2023-04-01T14:12:29;100132.31;;;10.91;100.00
53262;BME280;39658;51.090;-1.786;2023-04-01T14:15:23;100128.94;;;10.77;100.00
53262;BME280;39658;51.090;-1.786;2023-04-01T14:18:07;100129.75;;;10.78;100.00
53262;BME280;39658;51.090;-1.786;2023-04-01T14:20:41;100131.31;;;10.69;100.00
53262;BME280;39658;51.090;-1.786;2023-04-01T14:23:28;100145.78;;;10.64;100.00
53262;BME280;39658;51.090;-1.786;2023-04-01T14:29:08;100159.31;;;10.59;100.00
53262;BME280;39658;51.090;-1.786;2023-04-01T14:31:44;100153.72;;;10.64;100.00
53262;BME280;39658;51.090;-1.786;2023-04-01T14:34:48;100158.34;;;10.95;100.00
53262;BME280;39658;51.090;-1.786;2023-04-01T14:37:30;100164.22;;;11.10;100.00
53262;BME280;39658;51.090;-1.786;2023-04-01T14:40:20;100171.31;;;11.21;100.00
53262;BME280;39658;51.090;-1.786;2023-04-01T14:43:08;100170.94;;;11.03;100.00
53262;BME280;39658;51.090;-1.786;2023-04-01T14:45:50;100174.28;;;10.94;100.00